Weather at Hamilton County Sheriff's Patrol Heliport

Public forecast

Using degrees Fahrenheit for public forecast. Weather courtesy of forecast.io.

Closest aviation weather report (METAR) to Hamilton County Sheriff's Patrol Heliport

Closest report is Butler Co Regional Airport - Hogan Field, 5.5 nm (10.1 km) NNE. Retrieved 2021/06/13 10:09 UTC (32 minutes ago):

KHAO 131009Z AUTO 00000KT 4SM BR CLR 21/20 A2987 RMK AO2 T02060200

Closest aviation forecast (TAF) to Hamilton County Sheriff's Patrol Heliport

Closest forecast is Cincinnati Municipal Airport Lunken Field, 12.6 nm (23.3 km) SSE. Retrieved 2021/06/13 06:39 UTC (4 hours ago):

TAF KLUK 130536Z 1306/1406 00000KT P6SM VCTS BKN050CB FM130900 29003KT P6SM VCSH SCT050 TEMPO 1309/1312 5SM BR FM131400 32005KT P6SM VCTS SCT035CB FM131900 33007KT P6SM SCT040 FM140000 35008KT P6SM SCT250